Time;durP1;ratioP1;P1;durP2;ratioP2;P2;SDS_P1;SDS_P2;PMS_P1;PMS_P2;Temp;Humidity;BMP_temperature;BMP_pressure;BME280_temperature;BME280_humidity;BME280_pressure;Samples;Min_cycle;Max_cycle;Signal;HPM_P1;HPM_P2
2021/07/02 00:00:40;;;;;;;2.80;1.70;;;;;;;17.01;72.41;96308.47;1682328;83;21026;-79
2021/07/02 00:03:07;;;;;;;2.22;1.50;;;;;;;16.99;72.27;96306.58;1684595;85;21007;-79
2021/07/02 00:05:33;;;;;;;3.52;1.67;;;;;;;16.98;72.39;96306.30;1614065;87;20948;-79
2021/07/02 00:07:59;;;;;;;3.00;1.77;;;;;;;16.93;72.49;96303.03;1661770;85;20964;-79
2021/07/02 00:10:25;;;;;;;2.40;1.82;;;;;;;16.92;72.54;96298.81;1674420;85;21038;-79
2021/07/02 00:12:50;;;;;;;2.10;1.80;;;;;;;16.91;72.82;96301.12;1671115;84;20925;-79
2021/07/02 00:15:16;;;;;;;2.70;2.22;;;;;;;16.92;72.87;96309.80;1675078;84;21284;-79
2021/07/02 00:17:42;;;;;;;2.70;1.70;;;;;;;16.91;72.84;96308.20;1679599;83;20986;-79
2021/07/02 00:20:11;;;;;;;2.00;1.70;;;;;;;16.93;73.00;96303.55;1664035;85;20975;-79
2021/07/02 00:22:36;;;;;;;1.95;1.65;;;;;;;16.93;73.20;96300.41;1665411;85;20916;-79
2021/07/02 00:25:04;;;;;;;3.15;1.80;;;;;;;16.92;73.28;96297.98;1680247;83;20990;-79
2021/07/02 00:27:30;;;;;;;2.75;1.70;;;;;;;16.91;73.36;96295.08;1648887;84;21351;-79
2021/07/02 00:29:55;;;;;;;4.60;1.55;;;;;;;16.91;73.44;96299.81;1674654;84;20986;-79
2021/07/02 00:32:21;;;;;;;3.40;1.62;;;;;;;16.92;73.38;96294.05;1673163;84;21019;-79
2021/07/02 00:34:47;;;;;;;2.42;1.87;;;;;;;16.92;73.34;96297.50;1683330;84;21379;-79
2021/07/02 00:37:13;;;;;;;3.05;1.85;;;;;;;16.92;73.50;96290.11;1668923;84;20916;-79
2021/07/02 00:39:38;;;;;;;2.55;1.98;;;;;;;16.91;73.45;96290.63;1670813;84;20916;-79
2021/07/02 00:42:04;;;;;;;2.83;2.00;;;;;;;16.89;73.40;96293.19;1677089;84;20979;-79
2021/07/02 00:44:43;;;;;;;2.58;1.75;;;;;;;16.84;73.65;96287.30;1659757;84;21343;-78
2021/07/02 00:47:11;;;;;;;2.80;1.95;;;;;;;16.83;73.64;96295.40;1662280;85;21028;-78
2021/07/02 00:49:36;;;;;;;3.27;1.95;;;;;;;16.81;73.56;96290.38;1638408;86;20981;-79
2021/07/02 00:52:06;;;;;;;2.52;2.10;;;;;;;16.76;73.59;96287.12;1670715;84;21258;-78
2021/07/02 00:54:33;;;;;;;3.55;1.72;;;;;;;16.72;73.92;96288.56;1660600;84;21244;-79
2021/07/02 00:57:00;;;;;;;3.95;2.25;;;;;;;16.63;73.88;96288.57;1635872;86;20976;-78
2021/07/02 00:59:26;;;;;;;2.27;1.77;;;;;;;16.58;73.79;96294.17;1627518;86;21021;-79
2021/07/02 01:01:52;;;;;;;2.65;1.65;;;;;;;16.53;73.81;96290.11;1677726;84;21056;-79
2021/07/02 01:04:17;;;;;;;3.98;2.05;;;;;;;16.49;73.73;96291.06;1670149;85;21243;-79
2021/07/02 01:06:45;;;;;;;4.08;2.00;;;;;;;16.47;73.70;96287.36;1640629;86;20930;-79
2021/07/02 01:09:11;;;;;;;3.55;1.80;;;;;;;16.44;73.81;96285.69;1623212;87;21264;-79
2021/07/02 01:11:37;;;;;;;2.65;2.00;;;;;;;16.42;74.00;96291.64;1636191;86;20968;-79
2021/07/02 01:14:03;;;;;;;2.10;1.90;;;;;;;16.40;74.17;96289.23;1676140;84;20931;-79
2021/07/02 01:16:29;;;;;;;3.10;1.82;;;;;;;16.38;74.39;96286.04;1666856;85;21293;-79
2021/07/02 01:18:55;;;;;;;4.10;2.65;;;;;;;16.37;74.43;96287.58;1667003;85;20964;-79
2021/07/02 01:21:21;;;;;;;4.42;2.17;;;;;;;16.38;74.24;96289.17;1642479;86;21201;-79
2021/07/02 01:23:46;;;;;;;3.22;2.37;;;;;;;16.39;74.53;96290.27;1668799;85;20914;-79
2021/07/02 01:26:12;;;;;;;3.65;2.10;;;;;;;16.39;74.56;96287.64;1615755;87;20982;-79
2021/07/02 01:28:38;;;;;;;2.60;2.12;;;;;;;16.38;74.48;96282.11;1678089;84;20924;-79
2021/07/02 01:31:03;;;;;;;5.33;2.60;;;;;;;16.38;74.66;96274.75;1664280;85;21961;-79
2021/07/02 01:33:29;;;;;;;2.92;1.60;;;;;;;16.35;74.76;96276.51;1649116;85;20932;-79
2021/07/02 01:36:06;;;;;;;4.60;1.90;;;;;;;16.37;74.70;96287.06;1667294;85;21005;-79
2021/07/02 01:38:32;;;;;;;3.02;2.10;;;;;;;16.40;74.80;96280.57;1665164;85;21022;-79
2021/07/02 01:40:57;;;;;;;3.52;2.02;;;;;;;16.42;74.76;96277.22;1651051;85;20991;-79
2021/07/02 01:43:24;;;;;;;6.78;2.80;;;;;;;16.42;74.71;96273.28;1665132;85;20994;-79
2021/07/02 01:45:50;;;;;;;3.95;2.52;;;;;;;16.44;74.74;96272.58;1692649;83;20950;-79
2021/07/02 01:48:16;;;;;;;3.27;2.40;;;;;;;16.44;74.98;96273.37;1696333;83;20985;-79
2021/07/02 01:50:42;;;;;;;4.05;2.60;;;;;;;16.46;75.00;96268.71;1692679;83;20935;-79
2021/07/02 01:53:08;;;;;;;3.98;2.40;;;;;;;16.50;74.87;96267.75;1694511;83;20978;-79
2021/07/02 01:55:34;;;;;;;2.85;2.55;;;;;;;16.56;74.91;96259.49;1693533;85;21329;-79
2021/07/02 01:58:00;;;;;;;2.22;2.02;;;;;;;16.61;74.56;96260.96;1690539;83;20962;-79
2021/07/02 02:00:26;;;;;;;5.45;2.70;;;;;;;16.64;74.64;96272.31;1693352;83;20965;-80
2021/07/02 02:02:51;;;;;;;4.42;3.08;;;;;;;16.68;74.77;96269.05;1671845;83;21277;-79
2021/07/02 02:05:17;;;;;;;3.80;2.62;;;;;;;16.68;74.42;96266.94;1691514;83;20926;-78
2021/07/02 02:07:43;;;;;;;4.83;2.95;;;;;;;16.70;74.27;96261.75;1694407;83;20933;-79
2021/07/02 02:10:10;;;;;;;4.55;2.40;;;;;;;16.74;74.36;96260.79;1678208;84;20918;-79
2021/07/02 02:12:36;;;;;;;4.72;2.58;;;;;;;16.77;74.19;96266.41;1678477;84;20938;-79
2021/07/02 02:15:03;;;;;;;3.35;2.77;;;;;;;16.85;74.05;96267.11;1678469;85;20912;-79
2021/07/02 02:17:29;;;;;;;3.90;2.62;;;;;;;16.86;73.64;96271.33;1691905;83;20918;-79
2021/07/02 02:19:54;;;;;;;3.17;2.47;;;;;;;16.88;73.65;96274.02;1662588;85;20953;-79
2021/07/02 02:22:20;;;;;;;3.27;2.85;;;;;;;16.92;73.55;96274.36;1665804;85;21354;-79
2021/07/02 02:24:47;;;;;;;3.05;2.70;;;;;;;16.93;73.61;96274.68;1678153;84;20987;-80
2021/07/02 02:27:13;;;;;;;3.85;2.83;;;;;;;16.95;73.49;96270.00;1658674;85;21287;-79
2021/07/02 02:29:38;;;;;;;3.30;2.95;;;;;;;16.94;73.20;96269.72;1671935;84;21020;-79
2021/07/02 02:32:05;;;;;;;3.45;3.08;;;;;;;16.96;73.21;96267.16;1688111;85;20976;-79
2021/07/02 02:34:31;;;;;;;3.92;2.90;;;;;;;16.95;72.79;96266.87;1672817;85;20961;-79
2021/07/02 02:36:57;;;;;;;3.67;3.00;;;;;;;16.93;72.75;96265.50;1668315;83;20985;-79
2021/07/02 02:39:22;;;;;;;3.52;2.65;;;;;;;16.93;72.92;96267.61;1664259;85;20937;-79
2021/07/02 02:41:48;;;;;;;3.77;2.85;;;;;;;16.92;72.89;96266.01;1678573;84;21284;-79
2021/07/02 02:44:14;;;;;;;2.60;2.35;;;;;;;16.95;72.83;96264.75;1660435;85;21001;-79
2021/07/02 02:46:40;;;;;;;6.08;3.05;;;;;;;16.94;72.76;96263.95;1664474;85;20968;-79
2021/07/02 02:49:05;;;;;;;4.12;2.92;;;;;;;16.92;72.65;96261.24;1664939;85;20956;-79
2021/07/02 02:51:31;;;;;;;3.72;2.92;;;;;;;16.83;72.66;96262.60;1629456;87;21258;-79
2021/07/02 02:53:57;;;;;;;3.35;2.87;;;;;;;16.79;72.75;96264.36;1655822;85;21037;-79
2021/07/02 02:56:23;;;;;;;4.30;2.80;;;;;;;16.76;72.86;96266.13;1657504;85;21219;-79
2021/07/02 02:58:49;;;;;;;4.83;3.20;;;;;;;16.74;72.90;96263.41;1653112;85;20961;-79
2021/07/02 03:01:15;;;;;;;4.47;3.47;;;;;;;16.70;72.87;96265.69;1678256;85;20988;-79
2021/07/02 03:03:40;;;;;;;4.10;3.55;;;;;;;16.69;73.00;96270.65;1675726;85;20930;-79
2021/07/02 03:06:07;;;;;;;4.90;2.80;;;;;;;16.67;73.13;96271.39;1647605;85;21000;-79
2021/07/02 03:08:33;;;;;;;5.20;3.10;;;;;;;16.68;73.14;96263.00;1664807;85;21353;-78
2021/07/02 03:10:58;;;;;;;3.67;3.12;;;;;;;16.67;73.32;96274.52;1664095;85;21037;-79
2021/07/02 03:13:24;;;;;;;4.12;3.72;;;;;;;16.63;73.35;96278.59;1664327;85;20930;-79
2021/07/02 03:15:50;;;;;;;3.37;3.02;;;;;;;16.60;73.30;96273.28;1678350;85;20897;-79
2021/07/02 03:18:15;;;;;;;4.75;3.05;;;;;;;16.61;73.39;96273.56;1672019;85;20928;-78
2021/07/02 03:20:41;;;;;;;4.65;3.25;;;;;;;16.66;73.50;96276.31;1641340;86;20936;-79
2021/07/02 03:23:07;;;;;;;3.85;2.95;;;;;;;16.73;73.40;96280.18;1642082;86;21008;-79
2021/07/02 03:25:33;;;;;;;3.75;2.98;;;;;;;16.77;73.25;96274.80;1650305;86;21038;-79
2021/07/02 03:27:58;;;;;;;4.58;3.33;;;;;;;16.77;73.48;96280.84;1631456;85;20936;-78
2021/07/02 03:30:24;;;;;;;5.08;3.87;;;;;;;16.78;73.34;96281.65;1663226;85;20941;-79
2021/07/02 03:32:50;;;;;;;4.67;3.30;;;;;;;16.79;73.31;96285.36;1674206;85;20949;-79
2021/07/02 03:35:15;;;;;;;4.78;3.65;;;;;;;16.78;73.29;96278.52;1673356;85;20916;-79
2021/07/02 03:37:41;;;;;;;4.20;3.15;;;;;;;16.78;73.20;96281.65;1641107;87;20983;-79
2021/07/02 03:40:09;;;;;;;3.98;3.15;;;;;;;16.76;73.28;96275.31;1644758;86;21385;-78
2021/07/02 03:42:35;;;;;;;4.12;3.00;;;;;;;16.76;73.47;96275.83;1665174;86;20930;-79
2021/07/02 03:45:00;;;;;;;4.80;3.52;;;;;;;16.78;73.55;96277.20;1658501;85;21281;-79
2021/07/02 03:47:26;;;;;;;4.33;2.92;;;;;;;16.79;73.56;96293.23;1668413;84;20986;-79
2021/07/02 03:49:52;;;;;;;6.28;3.05;;;;;;;16.79;73.55;96291.12;1643181;86;20918;-78
2021/07/02 03:52:18;;;;;;;3.83;2.80;;;;;;;16.75;73.59;96296.50;1606748;88;21007;-79
2021/07/02 03:54:44;;;;;;;5.00;3.30;;;;;;;16.76;73.71;96289.74;1660149;85;21042;-79
2021/07/02 03:57:13;;;;;;;6.20;3.62;;;;;;;16.78;73.64;96295.56;1652112;85;21325;-78
2021/07/02 03:59:44;;;;;;;5.17;4.05;;;;;;;16.77;73.61;96299.22;1631424;85;20973;-79
2021/07/02 04:02:11;;;;;;;4.58;3.87;;;;;;;16.76;73.62;96301.55;1657383;85;21032;-79
2021/07/02 04:04:37;;;;;;;6.10;4.12;;;;;;;16.75;73.87;96299.92;1654076;85;20951;-79
2021/07/02 04:07:05;;;;;;;4.67;3.50;;;;;;;16.68;73.79;96303.16;1655223;85;20980;-79
2021/07/02 04:09:32;;;;;;;6.22;5.62;;;;;;;16.70;73.93;96306.86;1663872;85;21000;-79
2021/07/02 04:11:58;;;;;;;7.42;6.03;;;;;;;16.70;73.90;96302.93;1670315;84;21033;-79
2021/07/02 04:14:24;;;;;;;6.95;6.28;;;;;;;16.65;74.15;96304.08;1642853;86;21054;-79
2021/07/02 04:16:50;;;;;;;6.25;5.72;;;;;;;16.63;74.08;96304.31;1643281;86;20962;-79
2021/07/02 04:19:16;;;;;;;6.95;6.35;;;;;;;16.66;74.22;96307.00;1639982;86;21346;-78
2021/07/02 04:21:42;;;;;;;7.20;6.53;;;;;;;16.62;74.36;96304.02;1641256;86;20957;-79
2021/07/02 04:24:08;;;;;;;5.78;5.20;;;;;;;16.61;74.32;96306.87;1659682;85;20959;-79
2021/07/02 04:26:33;;;;;;;5.37;4.87;;;;;;;16.59;74.39;96303.13;1636503;85;20912;-79
2021/07/02 04:28:59;;;;;;;6.83;5.62;;;;;;;16.63;74.40;96297.75;1658612;85;21001;-79
2021/07/02 04:31:26;;;;;;;6.12;5.58;;;;;;;16.68;74.44;96303.66;1631539;85;21121;-79
2021/07/02 04:33:51;;;;;;;6.20;5.33;;;;;;;16.68;74.56;96297.11;1663991;85;20924;-79
2021/07/02 04:36:17;;;;;;;6.08;5.47;;;;;;;16.68;74.62;96295.28;1663853;85;21048;-79
2021/07/02 04:38:43;;;;;;;8.50;6.28;;;;;;;16.73;74.88;96301.97;1653976;85;21005;-79
2021/07/02 04:41:09;;;;;;;6.20;5.58;;;;;;;16.71;74.71;96300.08;1670077;85;21416;-79
2021/07/02 04:43:35;;;;;;;7.83;5.22;;;;;;;16.75;74.74;96301.75;1634956;86;20965;-79
2021/07/02 04:46:01;;;;;;;6.72;5.80;;;;;;;16.76;74.74;96304.69;1667476;85;20968;-78
2021/07/02 04:48:27;;;;;;;6.33;5.65;;;;;;;16.75;74.75;96303.86;1649404;86;20947;-79
2021/07/02 04:50:53;;;;;;;7.08;5.70;;;;;;;16.74;74.95;96306.70;1657819;85;21268;-79
2021/07/02 04:53:20;;;;;;;6.62;5.92;;;;;;;16.70;74.94;96302.93;1669183;85;20963;-79
2021/07/02 04:55:45;;;;;;;6.50;5.90;;;;;;;16.69;75.05;96306.58;1639071;86;20963;-79
2021/07/02 04:58:11;;;;;;;7.30;5.12;;;;;;;16.70;75.27;96308.17;1644737;85;20940;-79
2021/07/02 05:00:38;;;;;;;6.20;5.45;;;;;;;16.68;75.04;96308.41;1637602;86;20981;-79
2021/07/02 05:03:05;;;;;;;7.87;6.12;;;;;;;16.70;75.09;96312.91;1649666;85;20985;-78
2021/07/02 05:05:31;;;;;;;6.87;6.22;;;;;;;16.69;75.14;96314.45;1668358;85;20967;-79
2021/07/02 05:07:57;;;;;;;7.15;6.45;;;;;;;16.62;75.30;96319.76;1666804;85;20917;-79
2021/07/02 05:10:23;;;;;;;6.65;5.95;;;;;;;16.58;75.40;96319.89;1673968;84;21230;-79
2021/07/02 05:12:49;;;;;;;8.48;5.05;;;;;;;16.58;75.40;96319.89;1677819;84;21012;-79
2021/07/02 05:15:14;;;;;;;6.33;5.53;;;;;;;16.61;75.66;96323.92;1666265;85;21048;-79
2021/07/02 05:17:40;;;;;;;6.10;5.60;;;;;;;16.63;75.61;96325.80;1634855;86;20931;-79
2021/07/02 05:20:07;;;;;;;7.70;6.67;;;;;;;16.62;75.63;96323.70;1610765;88;20998;-79
2021/07/02 05:22:33;;;;;;;7.92;6.22;;;;;;;16.62;75.66;96321.58;1639449;85;20968;-79
2021/07/02 05:24:58;;;;;;;8.23;6.37;;;;;;;16.61;75.64;96327.85;1663946;86;20987;-79
2021/07/02 05:27:24;;;;;;;5.67;5.08;;;;;;;16.60;75.81;96325.74;1678026;84;20921;-79
2021/07/02 05:29:50;;;;;;;6.33;5.00;;;;;;;16.58;75.78;96331.69;1668409;85;22316;-79
2021/07/02 05:32:16;;;;;;;6.30;5.70;;;;;;;16.55;75.75;96328.20;1664417;86;20996;-79
2021/07/02 05:34:41;;;;;;;5.83;5.33;;;;;;;16.59;75.94;96333.80;1663858;85;20944;-79
2021/07/02 05:37:08;;;;;;;6.83;6.12;;;;;;;16.62;75.95;96335.50;1669008;85;21001;-79
2021/07/02 05:39:33;;;;;;;7.12;5.83;;;;;;;16.61;76.08;96336.52;1640721;86;20998;-78
2021/07/02 05:41:59;;;;;;;6.83;6.12;;;;;;;16.53;76.06;96336.80;1640808;86;20969;-78
2021/07/02 05:44:25;;;;;;;6.85;4.83;;;;;;;16.50;76.29;96343.30;1648379;86;20974;-79
2021/07/02 05:46:51;;;;;;;7.53;5.40;;;;;;;16.46;76.34;96350.52;1678535;84;20940;-79
2021/07/02 05:49:18;;;;;;;6.92;6.03;;;;;;;16.44;76.51;96347.32;1695302;83;20965;-79
2021/07/02 05:51:44;;;;;;;6.20;5.60;;;;;;;16.43;76.54;96349.63;1662327;85;21038;-79
2021/07/02 05:54:09;;;;;;;6.42;5.55;;;;;;;16.43;76.67;96350.93;1665453;85;21045;-79
2021/07/02 05:56:35;;;;;;;5.72;4.53;;;;;;;16.47;76.84;96348.19;1673050;84;21343;-78
2021/07/02 05:59:02;;;;;;;5.05;4.60;;;;;;;16.50;77.03;96356.92;1664310;85;21338;-79
2021/07/02 06:01:29;;;;;;;5.97;4.75;;;;;;;16.50;77.03;96353.78;1678188;84;20950;-80
2021/07/02 06:03:55;;;;;;;4.80;4.40;;;;;;;16.53;76.84;96356.98;1696179;83;21263;-79
2021/07/02 06:06:20;;;;;;;5.33;4.62;;;;;;;16.49;76.87;96348.77;1678321;85;20949;-79
2021/07/02 06:08:47;;;;;;;4.85;4.45;;;;;;;16.49;76.95;96351.39;1678239;84;20982;-79
2021/07/02 06:11:12;;;;;;;4.80;4.28;;;;;;;16.47;76.99;96354.23;1694340;83;20970;-79
2021/07/02 06:13:38;;;;;;;5.30;4.50;;;;;;;16.50;77.06;96355.61;1662395;85;21010;-79
2021/07/02 06:16:05;;;;;;;5.65;4.47;;;;;;;16.54;77.18;96352.83;1666499;85;20997;-79
2021/07/02 06:18:31;;;;;;;4.50;4.10;;;;;;;16.60;77.24;96355.91;1678314;84;21231;-79
2021/07/02 06:20:57;;;;;;;4.65;4.25;;;;;;;16.69;77.13;96356.42;1660810;85;20961;-79
2021/07/02 06:23:23;;;;;;;5.20;4.75;;;;;;;16.70;77.08;96358.02;1678298;84;21004;-79
2021/07/02 06:25:48;;;;;;;5.47;4.37;;;;;;;16.72;77.04;96359.41;1678544;84;21324;-79
2021/07/02 06:28:14;;;;;;;5.42;4.92;;;;;;;16.71;76.72;96356.48;1678147;84;20931;-78
2021/07/02 06:30:42;;;;;;;4.90;4.50;;;;;;;16.71;76.55;96354.38;1678242;84;20954;-79
2021/07/02 06:33:08;;;;;;;4.90;4.50;;;;;;;16.71;76.67;96354.38;1678312;85;20989;-79
2021/07/02 06:35:33;;;;;;;5.20;4.80;;;;;;;16.74;76.84;96349.48;1671663;83;21004;-79
2021/07/02 06:37:59;;;;;;;5.10;4.67;;;;;;;16.77;76.81;96356.94;1678623;84;20943;-79
2021/07/02 06:40:25;;;;;;;5.67;5.17;;;;;;;16.80;76.82;96360.42;1696308;83;20945;-79
2021/07/02 06:42:51;;;;;;;5.55;5.15;;;;;;;16.79;76.78;96360.14;1678451;84;20946;-79
2021/07/02 06:45:16;;;;;;;5.53;5.03;;;;;;;16.80;76.53;96359.63;1670168;85;21009;-79
2021/07/02 06:47:59;;;;;;;5.33;4.83;;;;;;;16.82;76.97;96356.27;1664496;84;21348;-79
2021/07/02 06:50:28;;;;;;;4.62;4.22;;;;;;;16.89;76.88;96361.42;1669778;84;21232;-79
2021/07/02 06:52:53;;;;;;;5.17;4.72;;;;;;;16.98;76.53;96366.16;1695051;83;20994;-79
2021/07/02 06:55:19;;;;;;;5.17;4.67;;;;;;;17.02;75.96;96359.42;1677996;85;21316;-79
2021/07/02 06:57:45;;;;;;;5.33;4.83;;;;;;;16.99;76.09;96363.02;1696173;83;21243;-79
2021/07/02 07:00:12;;;;;;;4.67;4.28;;;;;;;17.04;76.41;96367.88;1678287;84;21022;-79
2021/07/02 07:02:38;;;;;;;4.35;3.95;;;;;;;17.08;76.12;96366.91;1693399;83;21371;-79
2021/07/02 07:05:05;;;;;;;4.62;4.22;;;;;;;17.16;76.57;96373.70;1665894;85;20922;-79
2021/07/02 07:07:31;;;;;;;5.10;4.50;;;;;;;17.26;76.18;96370.03;1678287;84;21023;-79
2021/07/02 07:09:57;;;;;;;4.45;4.00;;;;;;;17.34;76.14;96366.55;1696375;83;21215;-79
2021/07/02 07:12:23;;;;;;;6.25;5.65;;;;;;;17.45;76.05;96364.99;1678241;84;21011;-79
2021/07/02 07:14:49;;;;;;;7.28;6.45;;;;;;;17.50;75.84;96369.56;1695932;83;20960;-79
2021/07/02 07:17:14;;;;;;;6.33;5.67;;;;;;;17.55;76.00;96362.59;1678391;84;21322;-79
2021/07/02 07:19:40;;;;;;;6.90;6.20;;;;;;;17.64;76.25;96365.71;1664450;85;20914;-79
2021/07/02 07:22:06;;;;;;;6.70;6.03;;;;;;;17.75;76.14;96362.85;1665264;85;21046;-79
2021/07/02 07:24:32;;;;;;;7.75;7.05;;;;;;;17.83;75.96;96362.50;1678444;84;20968;-79
2021/07/02 07:26:58;;;;;;;8.25;7.53;;;;;;;17.90;75.45;96365.33;1678208;84;21035;-79
2021/07/02 07:29:24;;;;;;;8.55;7.62;;;;;;;17.84;74.67;96362.27;1678446;84;20995;-79
2021/07/02 07:31:51;;;;;;;9.43;8.40;;;;;;;17.79;74.75;96370.05;1678525;85;21310;-79
2021/07/02 07:36:56;;;;;;;7.97;7.22;;;;;;;17.73;75.19;96359.11;1687331;84;20999;-79
2021/07/02 07:39:22;;;;;;;8.45;7.67;;;;;;;17.79;75.36;96357.42;1688409;85;20949;-78
2021/07/02 07:41:48;;;;;;;10.28;9.28;;;;;;;17.81;74.68;96350.91;1688013;84;20989;-79
2021/07/02 07:44:14;;;;;;;11.12;10.03;;;;;;;17.85;75.16;96353.36;1677380;84;20944;-80
2021/07/02 07:46:40;;;;;;;11.40;10.30;;;;;;;17.88;74.90;96354.22;1677171;84;20992;-79
2021/07/02 07:49:06;;;;;;;10.65;9.65;;;;;;;17.76;75.00;96358.69;1651866;85;21291;-78
2021/07/02 07:51:38;;;;;;;10.15;8.80;;;;;;;17.78;75.49;96364.51;1637697;86;20954;-79
2021/07/02 07:54:02;;;;;;;9.18;8.33;;;;;;;17.77;75.49;96361.59;1666823;85;21246;-79
2021/07/02 07:56:30;;;;;;;8.60;7.80;;;;;;;17.81;75.53;96365.87;1668920;84;21001;-79
2021/07/02 07:58:57;;;;;;;8.73;7.90;;;;;;;17.79;74.96;96369.25;1650865;85;21000;-78
2021/07/02 08:01:23;;;;;;;9.83;8.85;;;;;;;17.69;74.92;96373.73;1646900;85;21047;-79
2021/07/02 08:03:48;;;;;;;9.10;7.85;;;;;;;17.62;75.41;96372.51;1665786;85;21009;-79
2021/07/02 08:06:14;;;;;;;10.65;9.75;;;;;;;17.64;75.43;96374.91;1682711;84;20898;-79
2021/07/02 08:08:40;;;;;;;10.23;9.05;;;;;;;17.59;75.26;96378.73;1665531;85;21332;-79
2021/07/02 08:11:06;;;;;;;9.10;8.25;;;;;;;17.49;75.07;96379.27;1667526;85;20976;-79
2021/07/02 08:13:31;;;;;;;8.55;7.67;;;;;;;17.56;75.96;96379.16;1667736;85;20965;-79
2021/07/02 08:15:57;;;;;;;9.50;8.60;;;;;;;17.62;76.13;96379.08;1646513;85;20956;-79
2021/07/02 08:18:24;;;;;;;9.30;8.50;;;;;;;17.69;75.48;96377.16;1655976;85;20964;-78
2021/07/02 08:20:50;;;;;;;10.75;8.85;;;;;;;17.60;75.94;96373.77;1629305;86;20960;-78
2021/07/02 08:23:16;;;;;;;9.10;8.20;;;;;;;17.63;75.75;96372.00;1640517;85;21296;-78
2021/07/02 08:25:42;;;;;;;9.08;8.18;;;;;;;17.64;76.05;96370.45;1635496;86;20936;-79
2021/07/02 08:30:52;;;;;;;10.60;9.38;;;;;;;17.62;75.86;96373.83;1667246;85;21377;-79
2021/07/02 08:33:19;;;;;;;9.00;8.10;;;;;;;17.60;75.76;96375.08;1639681;86;21021;-79
2021/07/02 08:35:45;;;;;;;9.70;8.80;;;;;;;17.63;75.65;96381.99;1674556;84;21006;-79
2021/07/02 08:38:14;;;;;;;10.28;9.38;;;;;;;17.68;76.15;96378.71;1663414;85;20991;-78
2021/07/02 08:40:40;;;;;;;10.85;9.83;;;;;;;17.74;76.31;96380.97;1677881;84;20956;-79
2021/07/02 08:43:06;;;;;;;10.20;9.30;;;;;;;17.78;75.86;96380.28;1652821;85;20942;-79
2021/07/02 08:45:32;;;;;;;10.00;8.93;;;;;;;17.87;75.85;96378.09;1675286;83;21011;-79
2021/07/02 08:48:04;;;;;;;9.80;8.90;;;;;;;17.90;75.99;96386.36;1691812;83;21340;-79
2021/07/02 08:50:31;;;;;;;9.48;8.60;;;;;;;17.97;75.55;96385.72;1694935;83;20972;-79
2021/07/02 08:52:57;;;;;;;9.95;8.93;;;;;;;18.12;75.91;96383.16;1678336;84;21000;-79
2021/07/02 08:55:23;;;;;;;10.25;9.33;;;;;;;18.29;75.95;96387.49;1678577;84;21272;-79
2021/07/02 08:57:49;;;;;;;10.23;9.23;;;;;;;18.43;75.59;96385.42;1694183;83;20989;-79
2021/07/02 09:00:16;;;;;;;9.23;8.25;;;;;;;18.53;75.41;96389.56;1678052;84;20981;-79
2021/07/02 09:02:42;;;;;;;9.45;8.65;;;;;;;18.66;75.50;96385.12;1678018;84;21036;-78
2021/07/02 09:05:36;;;;;;;9.25;8.35;;;;;;;18.67;74.21;96392.78;1677635;84;21277;-79
2021/07/02 09:08:13;;;;;;;9.73;8.83;;;;;;;18.74;74.61;96390.84;1665598;84;21209;-79
2021/07/02 09:10:39;;;;;;;10.25;9.25;;;;;;;18.88;74.19;96391.38;1670844;83;21327;-79
2021/07/02 09:13:05;;;;;;;9.60;8.70;;;;;;;18.96;74.10;96380.46;1678597;84;20931;-79
2021/07/02 09:15:31;;;;;;;8.60;7.80;;;;;;;19.02;73.43;96372.93;1695856;83;20977;-79
2021/07/02 09:17:58;;;;;;;8.23;7.53;;;;;;;19.10;73.79;96380.47;1678433;84;21288;-79
2021/07/02 09:20:35;;;;;;;8.73;7.37;;;;;;;19.15;72.74;96377.92;1659581;85;21354;-79
2021/07/02 09:23:08;;;;;;;10.23;9.23;;;;;;;19.24;73.51;96381.51;1682549;84;20944;-79
2021/07/02 09:25:45;;;;;;;10.03;9.13;;;;;;;19.28;72.78;96383.42;1682636;85;21273;-79
2021/07/02 09:28:11;;;;;;;10.63;9.68;;;;;;;19.38;73.68;96380.19;1686892;84;21287;-79
2021/07/02 09:30:47;;;;;;;11.33;10.28;;;;;;;19.41;72.78;96378.39;1696146;83;21009;-79
2021/07/02 09:33:22;;;;;;;9.53;8.63;;;;;;;19.46;71.70;96384.53;1678385;84;21083;-79
2021/07/02 09:35:53;;;;;;;8.98;8.20;;;;;;;19.27;72.27;96388.41;1688051;85;20987;-80
2021/07/02 09:38:34;;;;;;;10.05;9.15;;;;;;;19.32;72.53;96387.70;1688215;85;20959;-78
2021/07/02 09:41:00;;;;;;;9.30;8.40;;;;;;;19.36;72.10;96384.38;1686872;85;21296;-79
2021/07/02 09:43:27;;;;;;;10.78;9.90;;;;;;;19.45;72.16;96380.82;1678617;84;20918;-79
2021/07/02 09:45:58;;;;;;;9.65;8.73;;;;;;;19.60;72.33;96374.52;1658413;85;20970;-79
2021/07/02 09:48:26;;;;;;;9.68;8.88;;;;;;;19.65;71.95;96371.16;1682480;84;21020;-79
2021/07/02 09:50:59;;;;;;;9.23;8.43;;;;;;;19.74;71.29;96374.50;1687347;84;21371;-79
2021/07/02 09:53:28;;;;;;;9.38;8.58;;;;;;;19.74;70.69;96373.70;1681950;84;20986;-79
2021/07/02 09:55:57;;;;;;;8.90;8.20;;;;;;;19.81;70.38;96372.20;1654196;85;20997;-79
2021/07/02 09:58:29;;;;;;;9.25;8.55;;;;;;;19.85;70.89;96370.69;1657379;85;20990;-79
2021/07/02 10:00:59;;;;;;;9.48;8.55;;;;;;;19.92;70.83;96366.86;1683503;84;21244;-79
2021/07/02 10:03:35;;;;;;;9.90;9.10;;;;;;;20.08;70.87;96370.52;1694339;83;20993;-79
2021/07/02 10:06:06;;;;;;;10.70;9.80;;;;;;;20.07;69.70;96374.20;1671389;84;21005;-79
2021/07/02 10:08:36;;;;;;;9.47;8.70;;;;;;;20.08;70.64;96374.48;1685954;84;20948;-79
2021/07/02 10:11:05;;;;;;;8.13;7.42;;;;;;;19.98;69.77;96373.80;1687155;84;21002;-79
2021/07/02 10:13:34;;;;;;;9.38;8.58;;;;;;;19.99;69.88;96371.44;1692210;83;20914;-79
2021/07/02 10:16:05;;;;;;;8.78;7.97;;;;;;;20.13;69.66;96366.63;1656967;85;20951;-79
2021/07/02 10:18:31;;;;;;;9.95;8.95;;;;;;;20.22;68.50;96361.23;1655722;85;20971;-79
2021/07/02 10:21:00;;;;;;;9.13;8.38;;;;;;;20.41;69.94;96364.42;1686983;83;21061;-79
2021/07/02 10:23:33;;;;;;;8.50;7.80;;;;;;;20.58;70.29;96366.48;1657515;85;21002;-79
2021/07/02 10:25:58;;;;;;;7.65;7.00;;;;;;;20.76;68.77;96360.09;1675993;84;20999;-79
2021/07/02 10:28:26;;;;;;;7.85;7.05;;;;;;;20.95;68.54;96356.61;1653469;85;21246;-79
2021/07/02 10:30:52;;;;;;;7.97;7.15;;;;;;;21.10;68.41;96354.13;1666837;85;20979;-79
2021/07/02 10:33:19;;;;;;;10.00;9.10;;;;;;;21.25;68.37;96358.28;1678465;84;21011;-79
2021/07/02 10:35:57;;;;;;;7.70;7.00;;;;;;;21.22;66.44;96354.00;1688112;84;21301;-79
2021/07/02 10:38:26;;;;;;;8.60;7.90;;;;;;;21.08;67.08;96356.75;1664679;83;20957;-79
2021/07/02 10:40:51;;;;;;;8.70;7.90;;;;;;;21.04;67.44;96361.73;1676243;83;21021;-79
2021/07/02 10:43:23;;;;;;;7.70;7.20;;;;;;;20.86;66.12;96368.16;1678412;85;21030;-79
2021/07/02 10:46:16;;;;;;;7.83;7.03;;;;;;;20.82;66.91;96365.70;1673467;84;21000;-79
2021/07/02 10:48:53;;;;;;;8.78;7.75;;;;;;;20.82;67.28;96364.38;1674135;85;20929;-79
2021/07/02 10:51:38;;;;;;;7.33;6.72;;;;;;;20.97;66.78;96362.44;1648406;86;20983;-79
2021/07/02 10:54:23;;;;;;;8.03;7.42;;;;;;;21.07;66.96;96363.88;1674348;85;20929;-79
2021/07/02 10:56:59;;;;;;;7.70;7.10;;;;;;;21.07;65.72;96367.05;1651457;86;20979;-80
2021/07/02 10:59:46;;;;;;;7.90;7.08;;;;;;;20.74;65.01;96363.52;1656994;86;21303;-79
2021/07/02 11:02:20;;;;;;;5.70;5.20;;;;;;;20.57;65.48;96364.89;1643063;86;20902;-79
2021/07/02 11:04:57;;;;;;;7.95;7.25;;;;;;;20.65;67.26;96363.13;1644887;86;20997;-80
2021/07/02 11:07:30;;;;;;;7.45;6.85;;;;;;;20.52;66.60;96362.20;1672341;85;20900;-79
2021/07/02 11:10:00;;;;;;;8.20;7.50;;;;;;;20.42;66.39;96368.66;1668082;85;20953;-79
2021/07/02 11:12:31;;;;;;;7.87;7.28;;;;;;;20.37;66.79;96373.84;1669209;85;20955;-80
2021/07/02 11:15:03;;;;;;;9.15;8.28;;;;;;;20.29;66.36;96370.28;1666240;85;20978;-79
2021/07/02 11:17:47;;;;;;;8.75;7.95;;;;;;;20.25;66.74;96366.55;1664397;85;21275;-79
2021/07/02 11:20:24;;;;;;;8.15;7.37;;;;;;;20.25;67.34;96368.66;1667690;85;20924;-79
2021/07/02 11:22:58;;;;;;;8.60;7.58;;;;;;;20.26;67.57;96368.94;1670939;85;20921;-80
2021/07/02 11:25:59;;;;;;;7.90;7.30;;;;;;;20.28;65.98;96367.37;1674202;85;21356;-79
2021/07/02 11:28:11;;;;;;;7.92;7.25;;;;;;;20.29;66.84;96363.69;1641093;86;22234;-79
2021/07/02 11:30:39;;;;;;;9.00;8.20;;;;;;;20.51;67.69;96369.84;1626174;86;20996;-79
2021/07/02 11:33:13;;;;;;;9.00;8.20;;;;;;;20.58;67.10;96363.84;1658037;86;20944;-79
2021/07/02 11:35:50;;;;;;;8.20;7.58;;;;;;;20.58;66.63;96362.53;1658246;86;20937;-79
2021/07/02 11:38:23;;;;;;;9.48;8.63;;;;;;;20.60;66.78;96359.64;1669439;85;20931;-79